sensor_id;sensor_type;location;lat;lon;timestamp;temperature;humidity
20610;DHT22;10463;52.378;9.688;2022-12-05T00:00:27;21.50;24.00
20610;DHT22;10463;52.378;9.688;2022-12-05T00:03:12;21.50;24.00
20610;DHT22;10463;52.378;9.688;2022-12-05T00:05:56;21.50;23.90
20610;DHT22;10463;52.378;9.688;2022-12-05T00:08:43;21.50;23.90
20610;DHT22;10463;52.378;9.688;2022-12-05T00:11:30;21.50;23.90
20610;DHT22;10463;52.378;9.688;2022-12-05T00:14:42;21.50;23.90
20610;DHT22;10463;52.378;9.688;2022-12-05T00:17:27;21.50;23.90
20610;DHT22;10463;52.378;9.688;2022-12-05T00:20:22;21.50;23.90
20610;DHT22;10463;52.378;9.688;2022-12-05T00:23:27;21.50;23.90
20610;DHT22;10463;52.378;9.688;2022-12-05T00:26:31;21.50;23.90
20610;DHT22;10463;52.378;9.688;2022-12-05T00:29:16;21.50;23.80
20610;DHT22;10463;52.378;9.688;2022-12-05T00:32:01;21.50;23.80
20610;DHT22;10463;52.378;9.688;2022-12-05T00:34:45;21.50;23.80
20610;DHT22;10463;52.378;9.688;2022-12-05T00:37:30;21.50;23.80
20610;DHT22;10463;52.378;9.688;2022-12-05T00:40:15;21.50;23.80
20610;DHT22;10463;52.378;9.688;2022-12-05T00:43:01;21.50;23.80
20610;DHT22;10463;52.378;9.688;2022-12-05T00:45:45;21.50;23.80
20610;DHT22;10463;52.378;9.688;2022-12-05T00:48:30;21.50;24.30
20610;DHT22;10463;52.378;9.688;2022-12-05T00:51:19;21.50;23.80
20610;DHT22;10463;52.378;9.688;2022-12-05T00:54:07;21.50;23.80
20610;DHT22;10463;52.378;9.688;2022-12-05T00:56:53;21.50;23.80
20610;DHT22;10463;52.378;9.688;2022-12-05T00:59:41;21.50;23.80
20610;DHT22;10463;52.378;9.688;2022-12-05T01:02:25;21.50;23.80
20610;DHT22;10463;52.378;9.688;2022-12-05T01:05:10;21.50;23.80
20610;DHT22;10463;52.378;9.688;2022-12-05T01:07:55;21.50;23.90
20610;DHT22;10463;52.378;9.688;2022-12-05T01:10:39;21.50;24.00
20610;DHT22;10463;52.378;9.688;2022-12-05T01:13:25;21.50;24.00
20610;DHT22;10463;52.378;9.688;2022-12-05T01:16:16;21.50;24.00
20610;DHT22;10463;52.378;9.688;2022-12-05T01:19:07;21.50;24.10
20610;DHT22;10463;52.378;9.688;2022-12-05T01:21:53;21.50;24.10
20610;DHT22;10463;52.378;9.688;2022-12-05T01:24:38;21.50;24.10
20610;DHT22;10463;52.378;9.688;2022-12-05T01:27:23;21.50;24.10
20610;DHT22;10463;52.378;9.688;2022-12-05T01:30:08;21.50;24.10
20610;DHT22;10463;52.378;9.688;2022-12-05T01:32:55;21.50;24.10
20610;DHT22;10463;52.378;9.688;2022-12-05T01:35:40;21.50;24.00
20610;DHT22;10463;52.378;9.688;2022-12-05T01:38:26;21.60;24.10
20610;DHT22;10463;52.378;9.688;2022-12-05T01:41:14;21.60;24.10
20610;DHT22;10463;52.378;9.688;2022-12-05T01:44:02;21.60;24.00
20610;DHT22;10463;52.378;9.688;2022-12-05T01:46:48;21.60;24.00
20610;DHT22;10463;52.378;9.688;2022-12-05T01:49:38;21.60;24.00
20610;DHT22;10463;52.378;9.688;2022-12-05T01:52:28;21.50;23.90
20610;DHT22;10463;52.378;9.688;2022-12-05T01:55:16;21.50;23.80
20610;DHT22;10463;52.378;9.688;2022-12-05T01:58:02;21.50;23.80
20610;DHT22;10463;52.378;9.688;2022-12-05T02:00:48;21.50;23.90
20610;DHT22;10463;52.378;9.688;2022-12-05T02:03:35;21.50;23.80
20610;DHT22;10463;52.378;9.688;2022-12-05T02:06:23;21.50;23.80
20610;DHT22;10463;52.378;9.688;2022-12-05T02:09:08;21.50;23.80
20610;DHT22;10463;52.378;9.688;2022-12-05T02:11:55;21.50;23.80
20610;DHT22;10463;52.378;9.688;2022-12-05T02:14:48;21.40;23.70
20610;DHT22;10463;52.378;9.688;2022-12-05T02:17:43;21.40;23.70
20610;DHT22;10463;52.378;9.688;2022-12-05T02:20:47;21.40;23.70
20610;DHT22;10463;52.378;9.688;2022-12-05T02:24:06;21.40;23.70
20610;DHT22;10463;52.378;9.688;2022-12-05T02:27:13;21.40;23.70
20610;DHT22;10463;52.378;9.688;2022-12-05T02:30:10;21.40;23.60
20610;DHT22;10463;52.378;9.688;2022-12-05T02:33:07;21.40;23.60
20610;DHT22;10463;52.378;9.688;2022-12-05T02:36:01;21.30;23.50
20610;DHT22;10463;52.378;9.688;2022-12-05T02:38:55;21.30;24.00
20610;DHT22;10463;52.378;9.688;2022-12-05T02:41:49;21.30;23.50
20610;DHT22;10463;52.378;9.688;2022-12-05T02:44:39;21.30;23.50
20610;DHT22;10463;52.378;9.688;2022-12-05T02:47:30;21.30;23.50
20610;DHT22;10463;52.378;9.688;2022-12-05T02:50:21;21.30;23.50
20610;DHT22;10463;52.378;9.688;2022-12-05T02:53:10;21.20;24.00
20610;DHT22;10463;52.378;9.688;2022-12-05T02:55:56;21.20;23.40
20610;DHT22;10463;52.378;9.688;2022-12-05T02:58:47;21.20;23.40
20610;DHT22;10463;52.378;9.688;2022-12-05T03:01:34;21.20;23.40
20610;DHT22;10463;52.378;9.688;2022-12-05T03:04:23;21.20;23.40
20610;DHT22;10463;52.378;9.688;2022-12-05T03:07:11;21.20;23.40
20610;DHT22;10463;52.378;9.688;2022-12-05T03:10:00;21.20;23.40
20610;DHT22;10463;52.378;9.688;2022-12-05T03:12:50;21.10;23.30
20610;DHT22;10463;52.378;9.688;2022-12-05T03:15:39;21.10;23.30
20610;DHT22;10463;52.378;9.688;2022-12-05T03:18:28;21.10;23.30
20610;DHT22;10463;52.378;9.688;2022-12-05T03:21:24;21.10;23.30
20610;DHT22;10463;52.378;9.688;2022-12-05T03:24:12;21.10;23.30
20610;DHT22;10463;52.378;9.688;2022-12-05T03:27:08;21.10;23.30
20610;DHT22;10463;52.378;9.688;2022-12-05T03:30:00;21.00;23.20
20610;DHT22;10463;52.378;9.688;2022-12-05T03:32:52;21.00;23.20
20610;DHT22;10463;52.378;9.688;2022-12-05T03:35:46;21.00;23.30
20610;DHT22;10463;52.378;9.688;2022-12-05T03:38:38;21.00;23.20
20610;DHT22;10463;52.378;9.688;2022-12-05T03:41:33;21.00;23.20
20610;DHT22;10463;52.378;9.688;2022-12-05T03:44:27;21.00;23.20
20610;DHT22;10463;52.378;9.688;2022-12-05T03:47:19;21.00;23.20
20610;DHT22;10463;52.378;9.688;2022-12-05T03:50:10;20.90;23.20
20610;DHT22;10463;52.378;9.688;2022-12-05T03:53:00;20.90;23.20
20610;DHT22;10463;52.378;9.688;2022-12-05T03:55:57;20.90;23.20
20610;DHT22;10463;52.378;9.688;2022-12-05T03:58:48;20.90;23.20
20610;DHT22;10463;52.378;9.688;2022-12-05T04:01:37;20.90;23.20
20610;DHT22;10463;52.378;9.688;2022-12-05T04:04:27;20.80;23.20
20610;DHT22;10463;52.378;9.688;2022-12-05T04:07:15;20.80;23.20
20610;DHT22;10463;52.378;9.688;2022-12-05T04:10:05;20.80;23.20
20610;DHT22;10463;52.378;9.688;2022-12-05T04:12:57;20.80;23.20
20610;DHT22;10463;52.378;9.688;2022-12-05T04:16:04;20.80;23.20
20610;DHT22;10463;52.378;9.688;2022-12-05T04:19:17;20.80;23.20
20610;DHT22;10463;52.378;9.688;2022-12-05T04:22:03;20.80;23.20
20610;DHT22;10463;52.378;9.688;2022-12-05T04:24:48;20.80;23.20
20610;DHT22;10463;52.378;9.688;2022-12-05T04:28:03;20.70;23.20
20610;DHT22;10463;52.378;9.688;2022-12-05T04:31:03;20.70;23.20
20610;DHT22;10463;52.378;9.688;2022-12-05T04:33:52;20.70;23.20
20610;DHT22;10463;52.378;9.688;2022-12-05T04:36:42;20.70;23.20
20610;DHT22;10463;52.378;9.688;2022-12-05T04:39:33;20.70;23.70
20610;DHT22;10463;52.378;9.688;2022-12-05T04:42:23;20.60;23.10
20610;DHT22;10463;52.378;9.688;2022-12-05T04:45:14;20.60;23.10
20610;DHT22;10463;52.378;9.688;2022-12-05T04:48:05;20.60;23.10
20610;DHT22;10463;52.378;9.688;2022-12-05T04:50:52;20.60;23.10
20610;DHT22;10463;52.378;9.688;2022-12-05T04:53:40;20.60;23.10
20610;DHT22;10463;52.378;9.688;2022-12-05T04:56:30;20.60;23.10
20610;DHT22;10463;52.378;9.688;2022-12-05T04:59:17;20.60;23.20
20610;DHT22;10463;52.378;9.688;2022-12-05T05:02:07;20.60;23.10
20610;DHT22;10463;52.378;9.688;2022-12-05T05:04:54;20.50;23.00
20610;DHT22;10463;52.378;9.688;2022-12-05T05:07:46;20.50;23.00
20610;DHT22;10463;52.378;9.688;2022-12-05T05:10:38;20.50;23.10
20610;DHT22;10463;52.378;9.688;2022-12-05T05:13:26;20.50;23.10
20610;DHT22;10463;52.378;9.688;2022-12-05T05:16:14;20.50;23.10
20610;DHT22;10463;52.378;9.688;2022-12-05T05:19:04;20.50;23.10
20610;DHT22;10463;52.378;9.688;2022-12-05T05:21:49;20.40;23.00
20610;DHT22;10463;52.378;9.688;2022-12-05T05:24:34;20.50;23.10
20610;DHT22;10463;52.378;9.688;2022-12-05T05:27:19;20.40;23.00
20610;DHT22;10463;52.378;9.688;2022-12-05T05:30:06;20.40;23.10
20610;DHT22;10463;52.378;9.688;2022-12-05T05:32:51;20.40;23.10
20610;DHT22;10463;52.378;9.688;2022-12-05T05:35:37;20.40;23.60
20610;DHT22;10463;52.378;9.688;2022-12-05T05:38:22;20.40;23.10
20610;DHT22;10463;52.378;9.688;2022-12-05T05:41:12;20.40;23.10
20610;DHT22;10463;52.378;9.688;2022-12-05T05:43:58;20.40;23.10
20610;DHT22;10463;52.378;9.688;2022-12-05T05:46:43;20.40;23.00
20610;DHT22;10463;52.378;9.688;2022-12-05T05:49:27;20.40;23.00
20610;DHT22;10463;52.378;9.688;2022-12-05T05:52:14;20.40;23.00
20610;DHT22;10463;52.378;9.688;2022-12-05T05:54:58;20.30;23.00
20610;DHT22;10463;52.378;9.688;2022-12-05T05:57:45;20.30;23.00
20610;DHT22;10463;52.378;9.688;2022-12-05T06:00:30;20.30;23.00
20610;DHT22;10463;52.378;9.688;2022-12-05T06:03:14;20.30;23.10
20610;DHT22;10463;52.378;9.688;2022-12-05T06:06:01;20.30;23.10
20610;DHT22;10463;52.378;9.688;2022-12-05T06:08:48;20.30;23.00
20610;DHT22;10463;52.378;9.688;2022-12-05T06:11:33;20.30;23.60
20610;DHT22;10463;52.378;9.688;2022-12-05T06:14:17;20.30;23.10
20610;DHT22;10463;52.378;9.688;2022-12-05T06:17:02;20.30;23.10
20610;DHT22;10463;52.378;9.688;2022-12-05T06:19:47;20.20;23.00
20610;DHT22;10463;52.378;9.688;2022-12-05T06:22:31;20.20;23.10
20610;DHT22;10463;52.378;9.688;2022-12-05T06:25:18;20.20;23.00
20610;DHT22;10463;52.378;9.688;2022-12-05T06:28:02;20.20;23.00
20610;DHT22;10463;52.378;9.688;2022-12-05T06:30:47;20.20;23.00
20610;DHT22;10463;52.378;9.688;2022-12-05T06:33:32;20.20;23.00
20610;DHT22;10463;52.378;9.688;2022-12-05T06:36:18;20.20;23.00
20610;DHT22;10463;52.378;9.688;2022-12-05T06:39:03;20.20;23.10
20610;DHT22;10463;52.378;9.688;2022-12-05T06:41:50;20.20;23.20
20610;DHT22;10463;52.378;9.688;2022-12-05T06:44:34;20.10;23.30
20610;DHT22;10463;52.378;9.688;2022-12-05T06:47:19;20.10;23.40
20610;DHT22;10463;52.378;9.688;2022-12-05T06:50:05;20.20;23.50
20610;DHT22;10463;52.378;9.688;2022-12-05T06:52:51;20.10;23.40
20610;DHT22;10463;52.378;9.688;2022-12-05T06:55:35;20.10;23.40
20610;DHT22;10463;52.378;9.688;2022-12-05T06:58:21;20.10;23.40
20610;DHT22;10463;52.378;9.688;2022-12-05T07:01:11;20.10;23.50
20610;DHT22;10463;52.378;9.688;2022-12-05T07:04:16;20.20;23.50
20610;DHT22;10463;52.378;9.688;2022-12-05T07:07:03;20.10;23.50
20610;DHT22;10463;52.378;9.688;2022-12-05T07:09:48;20.10;23.50
20610;DHT22;10463;52.378;9.688;2022-12-05T07:12:37;20.10;23.50
20610;DHT22;10463;52.378;9.688;2022-12-05T07:15:23;20.20;23.50
20610;DHT22;10463;52.378;9.688;2022-12-05T07:18:08;20.20;23.50
20610;DHT22;10463;52.378;9.688;2022-12-05T07:20:58;20.10;23.50
20610;DHT22;10463;52.378;9.688;2022-12-05T07:23:44;20.20;23.50
20610;DHT22;10463;52.378;9.688;2022-12-05T07:26:29;20.10;23.50
20610;DHT22;10463;52.378;9.688;2022-12-05T07:29:14;20.10;23.40
20610;DHT22;10463;52.378;9.688;2022-12-05T07:32:00;20.20;23.50
20610;DHT22;10463;52.378;9.688;2022-12-05T07:34:45;20.20;23.50
20610;DHT22;10463;52.378;9.688;2022-12-05T07:37:30;20.20;23.50
20610;DHT22;10463;52.378;9.688;2022-12-05T07:40:14;20.10;23.40
20610;DHT22;10463;52.378;9.688;2022-12-05T07:42:59;20.20;23.50
20610;DHT22;10463;52.378;9.688;2022-12-05T07:45:44;20.20;23.50
20610;DHT22;10463;52.378;9.688;2022-12-05T07:48:30;20.10;23.90
20610;DHT22;10463;52.378;9.688;2022-12-05T07:51:15;20.20;23.50
20610;DHT22;10463;52.378;9.688;2022-12-05T07:54:01;20.20;23.50
20610;DHT22;10463;52.378;9.688;2022-12-05T07:56:45;20.10;23.40
20610;DHT22;10463;52.378;9.688;2022-12-05T07:59:30;20.20;23.50
20610;DHT22;10463;52.378;9.688;2022-12-05T08:02:14;20.20;23.50
20610;DHT22;10463;52.378;9.688;2022-12-05T08:05:00;20.20;23.40
20610;DHT22;10463;52.378;9.688;2022-12-05T08:07:45;20.20;23.40
20610;DHT22;10463;52.378;9.688;2022-12-05T08:10:29;20.20;23.40
20610;DHT22;10463;52.378;9.688;2022-12-05T08:13:15;20.20;23.40
20610;DHT22;10463;52.378;9.688;2022-12-05T08:16:01;20.10;23.40
20610;DHT22;10463;52.378;9.688;2022-12-05T08:18:46;20.20;23.40
20610;DHT22;10463;52.378;9.688;2022-12-05T08:21:33;20.20;23.40
20610;DHT22;10463;52.378;9.688;2022-12-05T08:24:18;20.20;23.40
20610;DHT22;10463;52.378;9.688;2022-12-05T08:27:03;20.20;23.40
20610;DHT22;10463;52.378;9.688;2022-12-05T08:29:48;20.20;23.40
20610;DHT22;10463;52.378;9.688;2022-12-05T08:32:33;20.20;23.40
20610;DHT22;10463;52.378;9.688;2022-12-05T08:35:18;20.20;23.40
20610;DHT22;10463;52.378;9.688;2022-12-05T08:38:04;20.20;23.40
20610;DHT22;10463;52.378;9.688;2022-12-05T08:40:49;20.20;23.40
20610;DHT22;10463;52.378;9.688;2022-12-05T08:43:34;20.20;23.40
20610;DHT22;10463;52.378;9.688;2022-12-05T08:46:19;20.20;23.40
20610;DHT22;10463;52.378;9.688;2022-12-05T08:49:04;20.20;23.40
20610;DHT22;10463;52.378;9.688;2022-12-05T08:51:49;20.20;23.40
20610;DHT22;10463;52.378;9.688;2022-12-05T08:54:36;20.20;23.40
20610;DHT22;10463;52.378;9.688;2022-12-05T08:57:21;20.20;23.40
20610;DHT22;10463;52.378;9.688;2022-12-05T09:00:07;20.20;23.40
20610;DHT22;10463;52.378;9.688;2022-12-05T09:02:52;20.20;23.40
20610;DHT22;10463;52.378;9.688;2022-12-05T09:05:36;20.20;23.40
20610;DHT22;10463;52.378;9.688;2022-12-05T09:08:21;20.20;23.40
20610;DHT22;10463;52.378;9.688;2022-12-05T09:11:11;20.30;23.50
20610;DHT22;10463;52.378;9.688;2022-12-05T09:13:58;20.20;23.40
20610;DHT22;10463;52.378;9.688;2022-12-05T09:16:45;20.20;23.40
20610;DHT22;10463;52.378;9.688;2022-12-05T09:19:30;20.20;23.40
20610;DHT22;10463;52.378;9.688;2022-12-05T09:22:15;20.20;23.30
20610;DHT22;10463;52.378;9.688;2022-12-05T09:24:59;20.20;23.40
20610;DHT22;10463;52.378;9.688;2022-12-05T09:27:45;20.30;23.40
20610;DHT22;10463;52.378;9.688;2022-12-05T09:30:31;20.20;23.40
20610;DHT22;10463;52.378;9.688;2022-12-05T09:33:15;20.30;23.40
20610;DHT22;10463;52.378;9.688;2022-12-05T09:36:01;20.30;23.40
20610;DHT22;10463;52.378;9.688;2022-12-05T09:38:47;20.30;23.40
20610;DHT22;10463;52.378;9.688;2022-12-05T09:42:12;20.20;23.30
20610;DHT22;10463;52.378;9.688;2022-12-05T09:45:13;20.30;23.40
20610;DHT22;10463;52.378;9.688;2022-12-05T09:48:06;20.30;23.40
20610;DHT22;10463;52.378;9.688;2022-12-05T09:50:58;20.30;23.40
20610;DHT22;10463;52.378;9.688;2022-12-05T09:53:44;20.30;23.40
20610;DHT22;10463;52.378;9.688;2022-12-05T09:56:29;20.30;23.40
20610;DHT22;10463;52.378;9.688;2022-12-05T09:59:14;20.30;23.40
20610;DHT22;10463;52.378;9.688;2022-12-05T10:02:22;20.30;23.40
20610;DHT22;10463;52.378;9.688;2022-12-05T10:05:13;20.30;23.40
20610;DHT22;10463;52.378;9.688;2022-12-05T10:08:06;20.30;23.40
20610;DHT22;10463;52.378;9.688;2022-12-05T10:11:01;20.30;23.40
20610;DHT22;10463;52.378;9.688;2022-12-05T10:13:53;20.30;23.50
20610;DHT22;10463;52.378;9.688;2022-12-05T10:16:47;20.30;23.60
20610;DHT22;10463;52.378;9.688;2022-12-05T10:19:38;20.30;23.70
20610;DHT22;10463;52.378;9.688;2022-12-05T10:22:29;20.30;23.70
20610;DHT22;10463;52.378;9.688;2022-12-05T10:25:20;20.30;23.70
20610;DHT22;10463;52.378;9.688;2022-12-05T10:28:12;20.30;23.70
20610;DHT22;10463;52.378;9.688;2022-12-05T10:31:04;20.40;23.80
20610;DHT22;10463;52.378;9.688;2022-12-05T10:33:56;20.30;23.80
20610;DHT22;10463;52.378;9.688;2022-12-05T10:36:53;20.40;23.90
20610;DHT22;10463;52.378;9.688;2022-12-05T10:39:39;20.40;23.90
20610;DHT22;10463;52.378;9.688;2022-12-05T10:42:27;20.40;23.80
20610;DHT22;10463;52.378;9.688;2022-12-05T10:45:16;20.40;23.80
20610;DHT22;10463;52.378;9.688;2022-12-05T10:48:01;20.40;23.90
20610;DHT22;10463;52.378;9.688;2022-12-05T10:50:50;20.40;24.40
20610;DHT22;10463;52.378;9.688;2022-12-05T10:53:40;20.50;24.50
20610;DHT22;10463;52.378;9.688;2022-12-05T10:56:41;20.40;23.90
20610;DHT22;10463;52.378;9.688;2022-12-05T10:59:44;20.50;24.00
20610;DHT22;10463;52.378;9.688;2022-12-05T11:02:31;20.50;24.00
20610;DHT22;10463;52.378;9.688;2022-12-05T11:05:28;20.50;24.00
20610;DHT22;10463;52.378;9.688;2022-12-05T11:08:21;20.50;24.50
20610;DHT22;10463;52.378;9.688;2022-12-05T11:11:20;20.50;24.00
20610;DHT22;10463;52.378;9.688;2022-12-05T11:14:20;20.60;24.10
20610;DHT22;10463;52.378;9.688;2022-12-05T11:17:05;20.60;24.10
20610;DHT22;10463;52.378;9.688;2022-12-05T11:19:50;20.60;24.10
20610;DHT22;10463;52.378;9.688;2022-12-05T11:22:35;20.60;24.10
20610;DHT22;10463;52.378;9.688;2022-12-05T11:25:27;20.60;24.00
20610;DHT22;10463;52.378;9.688;2022-12-05T11:28:31;20.60;24.00
20610;DHT22;10463;52.378;9.688;2022-12-05T11:31:27;20.60;24.10
20610;DHT22;10463;52.378;9.688;2022-12-05T11:34:19;20.70;24.10
20610;DHT22;10463;52.378;9.688;2022-12-05T11:37:10;20.60;24.10
20610;DHT22;10463;52.378;9.688;2022-12-05T11:39:56;20.70;24.20
20610;DHT22;10463;52.378;9.688;2022-12-05T11:43:02;20.70;24.80
20610;DHT22;10463;52.378;9.688;2022-12-05T11:46:01;20.70;24.20
20610;DHT22;10463;52.378;9.688;2022-12-05T11:49:10;20.70;24.20
20610;DHT22;10463;52.378;9.688;2022-12-05T11:52:06;20.70;24.30
20610;DHT22;10463;52.378;9.688;2022-12-05T11:54:59;20.70;24.30
20610;DHT22;10463;52.378;9.688;2022-12-05T11:58:26;20.70;24.20
20610;DHT22;10463;52.378;9.688;2022-12-05T12:01:26;20.80;24.30
20610;DHT22;10463;52.378;9.688;2022-12-05T12:04:36;20.80;24.20
20610;DHT22;10463;52.378;9.688;2022-12-05T12:07:48;20.80;24.30
20610;DHT22;10463;52.378;9.688;2022-12-05T12:10:48;20.80;24.30
20610;DHT22;10463;52.378;9.688;2022-12-05T12:13:50;20.80;24.30
20610;DHT22;10463;52.378;9.688;2022-12-05T12:16:49;20.80;24.30
20610;DHT22;10463;52.378;9.688;2022-12-05T12:20:06;20.80;24.30
20610;DHT22;10463;52.378;9.688;2022-12-05T12:23:13;20.90;24.40
20610;DHT22;10463;52.378;9.688;2022-12-05T12:26:08;20.90;24.50
20610;DHT22;10463;52.378;9.688;2022-12-05T12:29:02;20.90;24.50
20610;DHT22;10463;52.378;9.688;2022-12-05T12:32:06;20.90;24.50
20610;DHT22;10463;52.378;9.688;2022-12-05T12:35:27;20.90;24.50
20610;DHT22;10463;52.378;9.688;2022-12-05T12:38:42;20.90;24.60
20610;DHT22;10463;52.378;9.688;2022-12-05T12:41:51;20.90;24.70
20610;DHT22;10463;52.378;9.688;2022-12-05T12:45:38;20.90;24.70
20610;DHT22;10463;52.378;9.688;2022-12-05T12:48:56;21.00;24.90
20610;DHT22;10463;52.378;9.688;2022-12-05T12:51:47;21.00;24.90
20610;DHT22;10463;52.378;9.688;2022-12-05T12:55:02;21.00;24.90
20610;DHT22;10463;52.378;9.688;2022-12-05T12:58:04;21.00;24.90
20610;DHT22;10463;52.378;9.688;2022-12-05T13:01:00;21.00;24.80
20610;DHT22;10463;52.378;9.688;2022-12-05T13:03:51;21.00;24.80
20610;DHT22;10463;52.378;9.688;2022-12-05T13:06:42;21.00;24.80
20610;DHT22;10463;52.378;9.688;2022-12-05T13:09:30;21.10;24.80
20610;DHT22;10463;52.378;9.688;2022-12-05T13:12:23;21.10;24.80
20610;DHT22;10463;52.378;9.688;2022-12-05T13:15:15;21.10;24.80
20610;DHT22;10463;52.378;9.688;2022-12-05T13:18:03;21.10;24.80
20610;DHT22;10463;52.378;9.688;2022-12-05T13:20:53;21.10;24.80
20610;DHT22;10463;52.378;9.688;2022-12-05T13:23:44;21.10;24.80
20610;DHT22;10463;52.378;9.688;2022-12-05T13:26:31;21.10;24.80
20610;DHT22;10463;52.378;9.688;2022-12-05T13:29:23;21.10;24.70
20610;DHT22;10463;52.378;9.688;2022-12-05T13:32:29;21.20;24.80
20610;DHT22;10463;52.378;9.688;2022-12-05T13:35:19;21.20;24.80
20610;DHT22;10463;52.378;9.688;2022-12-05T13:38:30;21.20;24.80
20610;DHT22;10463;52.378;9.688;2022-12-05T13:41:39;21.20;24.70
20610;DHT22;10463;52.378;9.688;2022-12-05T13:44:47;21.20;24.80
20610;DHT22;10463;52.378;9.688;2022-12-05T13:47:39;21.20;24.70
20610;DHT22;10463;52.378;9.688;2022-12-05T13:50:35;21.20;24.80
20610;DHT22;10463;52.378;9.688;2022-12-05T13:53:33;21.20;24.80
20610;DHT22;10463;52.378;9.688;2022-12-05T13:56:27;21.20;24.80
20610;DHT22;10463;52.378;9.688;2022-12-05T13:59:59;21.20;24.70
20610;DHT22;10463;52.378;9.688;2022-12-05T14:02:55;21.30;24.70
20610;DHT22;10463;52.378;9.688;2022-12-05T14:05:47;21.30;24.70
20610;DHT22;10463;52.378;9.688;2022-12-05T14:08:52;21.30;24.70
20610;DHT22;10463;52.378;9.688;2022-12-05T14:11:38;21.30;24.60
20610;DHT22;10463;52.378;9.688;2022-12-05T14:14:58;21.30;24.60
20610;DHT22;10463;52.378;9.688;2022-12-05T14:17:48;21.30;24.60
20610;DHT22;10463;52.378;9.688;2022-12-05T14:20:47;21.30;24.60
20610;DHT22;10463;52.378;9.688;2022-12-05T14:23:54;21.30;24.70
20610;DHT22;10463;52.378;9.688;2022-12-05T14:26:55;21.30;24.70
20610;DHT22;10463;52.378;9.688;2022-12-05T14:29:58;21.30;24.60
20610;DHT22;10463;52.378;9.688;2022-12-05T14:32:46;21.30;24.60
20610;DHT22;10463;52.378;9.688;2022-12-05T14:35:43;21.30;24.60
20610;DHT22;10463;52.378;9.688;2022-12-05T14:38:31;21.30;24.50
20610;DHT22;10463;52.378;9.688;2022-12-05T14:41:25;21.30;24.50
20610;DHT22;10463;52.378;9.688;2022-12-05T14:44:17;21.30;24.50
20610;DHT22;10463;52.378;9.688;2022-12-05T14:47:03;21.30;24.40
20610;DHT22;10463;52.378;9.688;2022-12-05T14:49:57;21.30;24.40
20610;DHT22;10463;52.378;9.688;2022-12-05T14:53:18;21.30;24.40
20610;DHT22;10463;52.378;9.688;2022-12-05T14:56:19;21.40;24.40
20610;DHT22;10463;52.378;9.688;2022-12-05T14:59:16;21.30;24.30
20610;DHT22;10463;52.378;9.688;2022-12-05T15:02:04;21.30;24.30
20610;DHT22;10463;52.378;9.688;2022-12-05T15:04:54;21.30;24.30
20610;DHT22;10463;52.378;9.688;2022-12-05T15:07:40;21.40;24.30
20610;DHT22;10463;52.378;9.688;2022-12-05T15:10:31;21.30;24.30
20610;DHT22;10463;52.378;9.688;2022-12-05T15:13:20;21.30;24.20
20610;DHT22;10463;52.378;9.688;2022-12-05T15:16:13;21.30;24.20
20610;DHT22;10463;52.378;9.688;2022-12-05T15:19:02;21.30;24.20
20610;DHT22;10463;52.378;9.688;2022-12-05T15:21:53;21.30;24.20
20610;DHT22;10463;52.378;9.688;2022-12-05T15:24:40;21.30;24.20
20610;DHT22;10463;52.378;9.688;2022-12-05T15:27:25;21.30;24.10
20610;DHT22;10463;52.378;9.688;2022-12-05T15:30:17;21.30;24.10
20610;DHT22;10463;52.378;9.688;2022-12-05T15:33:01;21.30;24.20
20610;DHT22;10463;52.378;9.688;2022-12-05T15:35:48;21.30;24.10
20610;DHT22;10463;52.378;9.688;2022-12-05T15:38:35;21.30;24.60
20610;DHT22;10463;52.378;9.688;2022-12-05T15:41:20;21.30;24.10
20610;DHT22;10463;52.378;9.688;2022-12-05T15:44:05;21.30;24.10
20610;DHT22;10463;52.378;9.688;2022-12-05T15:46:55;21.30;24.10
20610;DHT22;10463;52.378;9.688;2022-12-05T15:49:40;21.30;24.00
20610;DHT22;10463;52.378;9.688;2022-12-05T15:52:29;21.30;24.00
20610;DHT22;10463;52.378;9.688;2022-12-05T15:55:22;21.30;24.00
20610;DHT22;10463;52.378;9.688;2022-12-05T15:58:12;21.30;24.00
20610;DHT22;10463;52.378;9.688;2022-12-05T16:01:10;21.30;24.00
20610;DHT22;10463;52.378;9.688;2022-12-05T16:04:00;21.30;24.00
20610;DHT22;10463;52.378;9.688;2022-12-05T16:06:48;21.30;24.00
20610;DHT22;10463;52.378;9.688;2022-12-05T16:09:39;21.30;24.00
20610;DHT22;10463;52.378;9.688;2022-12-05T16:12:32;21.30;24.00
20610;DHT22;10463;52.378;9.688;2022-12-05T16:15:22;21.30;24.00
20610;DHT22;10463;52.378;9.688;2022-12-05T16:18:24;21.30;24.00
20610;DHT22;10463;52.378;9.688;2022-12-05T16:21:30;21.30;24.00
20610;DHT22;10463;52.378;9.688;2022-12-05T16:24:18;21.30;24.00
20610;DHT22;10463;52.378;9.688;2022-12-05T16:27:13;21.30;24.00
20610;DHT22;10463;52.378;9.688;2022-12-05T16:30:17;21.30;24.00
20610;DHT22;10463;52.378;9.688;2022-12-05T16:33:04;21.20;23.90
20610;DHT22;10463;52.378;9.688;2022-12-05T16:35:51;21.20;23.90
20610;DHT22;10463;52.378;9.688;2022-12-05T16:38:38;21.30;24.00
20610;DHT22;10463;52.378;9.688;2022-12-05T16:41:33;21.20;23.90
20610;DHT22;10463;52.378;9.688;2022-12-05T16:44:59;21.20;23.90
20610;DHT22;10463;52.378;9.688;2022-12-05T16:47:58;21.20;23.90
20610;DHT22;10463;52.378;9.688;2022-12-05T16:50:43;21.20;24.40
20610;DHT22;10463;52.378;9.688;2022-12-05T16:53:31;21.20;24.00
20610;DHT22;10463;52.378;9.688;2022-12-05T16:56:21;21.20;24.00
20610;DHT22;10463;52.378;9.688;2022-12-05T16:59:19;21.20;24.10
20610;DHT22;10463;52.378;9.688;2022-12-05T17:02:11;21.20;24.20
20610;DHT22;10463;52.378;9.688;2022-12-05T17:04:56;21.20;24.30
20610;DHT22;10463;52.378;9.688;2022-12-05T17:07:40;21.20;24.30
20610;DHT22;10463;52.378;9.688;2022-12-05T17:10:25;21.20;24.30
20610;DHT22;10463;52.378;9.688;2022-12-05T17:13:13;21.20;24.30
20610;DHT22;10463;52.378;9.688;2022-12-05T17:15:58;21.20;24.30
20610;DHT22;10463;52.378;9.688;2022-12-05T17:18:43;21.30;24.40
20610;DHT22;10463;52.378;9.688;2022-12-05T17:21:31;21.30;24.40
20610;DHT22;10463;52.378;9.688;2022-12-05T17:24:17;21.30;24.40
20610;DHT22;10463;52.378;9.688;2022-12-05T17:27:04;21.30;24.40
20610;DHT22;10463;52.378;9.688;2022-12-05T17:29:50;21.30;24.40
20610;DHT22;10463;52.378;9.688;2022-12-05T17:32:35;21.30;24.40
20610;DHT22;10463;52.378;9.688;2022-12-05T17:35:21;21.30;24.40
20610;DHT22;10463;52.378;9.688;2022-12-05T17:38:06;21.40;24.50
20610;DHT22;10463;52.378;9.688;2022-12-05T17:40:51;21.40;24.50
20610;DHT22;10463;52.378;9.688;2022-12-05T17:43:36;21.40;24.50
20610;DHT22;10463;52.378;9.688;2022-12-05T17:46:22;21.40;24.50
20610;DHT22;10463;52.378;9.688;2022-12-05T17:49:11;21.40;24.50
20610;DHT22;10463;52.378;9.688;2022-12-05T17:51:57;21.40;24.40
20610;DHT22;10463;52.378;9.688;2022-12-05T17:54:43;21.40;24.40
20610;DHT22;10463;52.378;9.688;2022-12-05T17:57:28;21.40;24.40
20610;DHT22;10463;52.378;9.688;2022-12-05T18:00:19;21.40;24.40